Terminal Aerodrome Forecast
Issued by NWS Buffalo, NY

Home | Current Version | Previous Version | Text Only | Print | Product List | Glossary On
Versions: 1 2 3 4 5 6 7 8 9 10 11 12 13 14 15 16 17 18 19 20 21 22 23 24 25 26
617
FTUS41 KBUF 290822 AAA
TAFART
TAF AMD
KART 290822Z 2908/3006 15008KT P6SM -SHRA BKN070
     FM291000 15012KT 6SM -SHRA VCTS OVC040CB
     FM291300 15012KT 6SM -SHRA VCTS OVC025CB
     FM291600 17011KT 6SM -SHRA VCTS OVC015CB
     FM291800 19010KT P6SM VCSH OVC015
     FM292100 19008KT P6SM SCT250=

USA.gov is the U.S. government's official web portal to all federal, state and local government web resources and services.